sensor_id;sensor_type;location;lat;lon;timestamp;P1;durP1;ratioP1;P2;durP2;ratioP2
76752;SDS011;65687;51.308;16.916;2023-04-16T00:01:28;22.70;;;14.50;;
76752;SDS011;65687;51.308;16.916;2023-04-16T00:06:30;23.20;;;14.70;;
76752;SDS011;65687;51.308;16.916;2023-04-16T00:11:32;21.20;;;14.10;;
76752;SDS011;65687;51.308;16.916;2023-04-16T00:16:33;23.10;;;15.00;;
76752;SDS011;65687;51.308;16.916;2023-04-16T00:21:35;19.40;;;13.20;;
76752;SDS011;65687;51.308;16.916;2023-04-16T00:26:36;22.60;;;15.00;;
76752;SDS011;65687;51.308;16.916;2023-04-16T00:31:38;21.50;;;14.20;;
76752;SDS011;65687;51.308;16.916;2023-04-16T00:36:39;18.40;;;12.90;;
76752;SDS011;65687;51.308;16.916;2023-04-16T00:41:42;19.50;;;12.40;;
76752;SDS011;65687;51.308;16.916;2023-04-16T00:46:44;21.60;;;13.20;;
76752;SDS011;65687;51.308;16.916;2023-04-16T00:51:46;17.30;;;12.20;;
76752;SDS011;65687;51.308;16.916;2023-04-16T00:56:48;16.80;;;11.00;;
76752;SDS011;65687;51.308;16.916;2023-04-16T01:01:51;20.10;;;12.40;;
76752;SDS011;65687;51.308;16.916;2023-04-16T01:06:52;21.50;;;14.40;;
76752;SDS011;65687;51.308;16.916;2023-04-16T01:11:54;19.80;;;12.90;;
76752;SDS011;65687;51.308;16.916;2023-04-16T01:16:55;19.90;;;11.20;;
76752;SDS011;65687;51.308;16.916;2023-04-16T01:21:57;20.00;;;12.80;;
76752;SDS011;65687;51.308;16.916;2023-04-16T01:26:59;18.70;;;11.80;;
76752;SDS011;65687;51.308;16.916;2023-04-16T01:32:01;17.90;;;10.90;;
76752;SDS011;65687;51.308;16.916;2023-04-16T01:37:02;22.20;;;13.20;;
76752;SDS011;65687;51.308;16.916;2023-04-16T01:42:04;19.00;;;12.80;;
76752;SDS011;65687;51.308;16.916;2023-04-16T01:47:05;19.50;;;12.20;;
76752;SDS011;65687;51.308;16.916;2023-04-16T01:52:08;20.90;;;13.10;;
76752;SDS011;65687;51.308;16.916;2023-04-16T01:57:09;21.90;;;13.20;;
76752;SDS011;65687;51.308;16.916;2023-04-16T02:02:12;28.50;;;16.60;;
76752;SDS011;65687;51.308;16.916;2023-04-16T02:07:16;23.70;;;14.80;;
76752;SDS011;65687;51.308;16.916;2023-04-16T02:12:17;28.10;;;15.10;;
76752;SDS011;65687;51.308;16.916;2023-04-16T02:17:20;27.50;;;14.70;;
76752;SDS011;65687;51.308;16.916;2023-04-16T02:22:21;22.20;;;14.60;;
76752;SDS011;65687;51.308;16.916;2023-04-16T02:27:23;24.60;;;14.50;;
76752;SDS011;65687;51.308;16.916;2023-04-16T02:32:24;26.70;;;14.80;;
76752;SDS011;65687;51.308;16.916;2023-04-16T02:37:26;23.40;;;14.20;;
76752;SDS011;65687;51.308;16.916;2023-04-16T02:42:27;24.00;;;15.40;;
76752;SDS011;65687;51.308;16.916;2023-04-16T02:47:29;22.30;;;13.80;;
76752;SDS011;65687;51.308;16.916;2023-04-16T02:52:30;24.00;;;14.40;;
76752;SDS011;65687;51.308;16.916;2023-04-16T02:57:33;24.30;;;13.30;;
76752;SDS011;65687;51.308;16.916;2023-04-16T03:02:35;23.20;;;15.00;;
76752;SDS011;65687;51.308;16.916;2023-04-16T03:07:37;21.20;;;12.70;;
76752;SDS011;65687;51.308;16.916;2023-04-16T03:12:40;17.30;;;10.50;;
76752;SDS011;65687;51.308;16.916;2023-04-16T03:17:42;21.70;;;11.90;;
76752;SDS011;65687;51.308;16.916;2023-04-16T03:22:44;15.30;;;9.10;;
76752;SDS011;65687;51.308;16.916;2023-04-16T03:27:46;27.60;;;15.10;;
76752;SDS011;65687;51.308;16.916;2023-04-16T03:32:48;23.30;;;14.70;;
76752;SDS011;65687;51.308;16.916;2023-04-16T03:37:49;23.70;;;14.90;;
76752;SDS011;65687;51.308;16.916;2023-04-16T03:42:51;23.70;;;14.80;;
76752;SDS011;65687;51.308;16.916;2023-04-16T03:47:53;22.10;;;13.40;;
76752;SDS011;65687;51.308;16.916;2023-04-16T03:52:54;21.10;;;12.60;;
76752;SDS011;65687;51.308;16.916;2023-04-16T03:57:56;18.80;;;12.60;;
76752;SDS011;65687;51.308;16.916;2023-04-16T04:02:57;22.30;;;14.20;;
76752;SDS011;65687;51.308;16.916;2023-04-16T04:07:59;23.70;;;12.70;;
76752;SDS011;65687;51.308;16.916;2023-04-16T04:13:01;22.10;;;14.00;;
76752;SDS011;65687;51.308;16.916;2023-04-16T04:18:04;20.00;;;13.30;;
76752;SDS011;65687;51.308;16.916;2023-04-16T04:23:06;23.20;;;13.60;;
76752;SDS011;65687;51.308;16.916;2023-04-16T04:28:07;21.20;;;14.40;;
76752;SDS011;65687;51.308;16.916;2023-04-16T04:33:08;24.60;;;14.80;;
76752;SDS011;65687;51.308;16.916;2023-04-16T04:38:10;23.10;;;15.30;;
76752;SDS011;65687;51.308;16.916;2023-04-16T04:43:12;24.20;;;14.10;;
76752;SDS011;65687;51.308;16.916;2023-04-16T04:48:13;22.90;;;14.60;;
76752;SDS011;65687;51.308;16.916;2023-04-16T04:58:17;21.50;;;14.10;;
76752;SDS011;65687;51.308;16.916;2023-04-16T05:03:19;20.50;;;12.80;;
76752;SDS011;65687;51.308;16.916;2023-04-16T05:13:23;20.40;;;13.00;;
76752;SDS011;65687;51.308;16.916;2023-04-16T05:18:24;25.80;;;15.60;;
76752;SDS011;65687;51.308;16.916;2023-04-16T05:23:26;18.40;;;12.20;;
76752;SDS011;65687;51.308;16.916;2023-04-16T05:28:27;14.30;;;9.10;;
76752;SDS011;65687;51.308;16.916;2023-04-16T05:33:31;13.70;;;9.50;;
76752;SDS011;65687;51.308;16.916;2023-04-16T05:38:32;17.60;;;10.40;;
76752;SDS011;65687;51.308;16.916;2023-04-16T05:43:34;15.60;;;9.90;;
76752;SDS011;65687;51.308;16.916;2023-04-16T05:48:35;16.20;;;10.30;;
76752;SDS011;65687;51.308;16.916;2023-04-16T05:53:37;12.10;;;7.40;;
76752;SDS011;65687;51.308;16.916;2023-04-16T05:58:38;15.90;;;11.20;;
76752;SDS011;65687;51.308;16.916;2023-04-16T06:03:40;18.20;;;11.00;;
76752;SDS011;65687;51.308;16.916;2023-04-16T06:08:41;18.10;;;11.40;;
76752;SDS011;65687;51.308;16.916;2023-04-16T06:13:43;19.50;;;12.10;;
76752;SDS011;65687;51.308;16.916;2023-04-16T06:18:44;16.60;;;10.70;;
76752;SDS011;65687;51.308;16.916;2023-04-16T06:23:46;18.10;;;12.10;;
76752;SDS011;65687;51.308;16.916;2023-04-16T06:28:48;19.40;;;12.30;;
76752;SDS011;65687;51.308;16.916;2023-04-16T06:33:49;17.50;;;11.30;;
76752;SDS011;65687;51.308;16.916;2023-04-16T06:38:51;17.00;;;11.10;;
76752;SDS011;65687;51.308;16.916;2023-04-16T06:43:52;15.00;;;10.00;;
76752;SDS011;65687;51.308;16.916;2023-04-16T06:48:54;14.00;;;10.00;;
76752;SDS011;65687;51.308;16.916;2023-04-16T06:53:56;18.40;;;10.90;;
76752;SDS011;65687;51.308;16.916;2023-04-16T06:58:57;10.90;;;7.20;;
76752;SDS011;65687;51.308;16.916;2023-04-16T07:04:01;15.60;;;11.10;;
76752;SDS011;65687;51.308;16.916;2023-04-16T07:09:02;14.00;;;9.70;;
76752;SDS011;65687;51.308;16.916;2023-04-16T07:14:04;12.80;;;9.20;;
76752;SDS011;65687;51.308;16.916;2023-04-16T07:19:06;15.20;;;9.40;;
76752;SDS011;65687;51.308;16.916;2023-04-16T07:24:08;15.40;;;9.90;;
76752;SDS011;65687;51.308;16.916;2023-04-16T07:29:11;13.70;;;9.00;;
76752;SDS011;65687;51.308;16.916;2023-04-16T07:34:13;22.90;;;13.80;;
76752;SDS011;65687;51.308;16.916;2023-04-16T07:39:15;17.90;;;10.60;;
76752;SDS011;65687;51.308;16.916;2023-04-16T07:44:17;18.90;;;11.30;;
76752;SDS011;65687;51.308;16.916;2023-04-16T07:49:18;18.30;;;9.90;;
76752;SDS011;65687;51.308;16.916;2023-04-16T07:54:20;17.40;;;9.50;;
76752;SDS011;65687;51.308;16.916;2023-04-16T07:59:21;15.10;;;9.30;;
76752;SDS011;65687;51.308;16.916;2023-04-16T08:04:23;16.50;;;9.60;;
76752;SDS011;65687;51.308;16.916;2023-04-16T08:09:25;17.00;;;10.80;;
76752;SDS011;65687;51.308;16.916;2023-04-16T08:14:27;15.20;;;8.50;;
76752;SDS011;65687;51.308;16.916;2023-04-16T08:19:29;11.80;;;7.80;;
76752;SDS011;65687;51.308;16.916;2023-04-16T08:24:31;13.00;;;8.50;;
76752;SDS011;65687;51.308;16.916;2023-04-16T08:29:32;12.70;;;8.50;;
76752;SDS011;65687;51.308;16.916;2023-04-16T08:34:34;13.00;;;7.70;;
76752;SDS011;65687;51.308;16.916;2023-04-16T08:39:35;12.30;;;7.80;;
76752;SDS011;65687;51.308;16.916;2023-04-16T08:44:39;8.30;;;5.50;;
76752;SDS011;65687;51.308;16.916;2023-04-16T08:49:44;10.80;;;7.00;;
76752;SDS011;65687;51.308;16.916;2023-04-16T08:54:55;8.70;;;6.30;;
76752;SDS011;65687;51.308;16.916;2023-04-16T09:00:00;10.90;;;6.70;;
76752;SDS011;65687;51.308;16.916;2023-04-16T09:05:03;9.80;;;6.30;;
76752;SDS011;65687;51.308;16.916;2023-04-16T09:10:07;9.50;;;6.80;;
76752;SDS011;65687;51.308;16.916;2023-04-16T09:15:10;9.70;;;6.60;;
76752;SDS011;65687;51.308;16.916;2023-04-16T09:20:13;11.00;;;6.50;;
76752;SDS011;65687;51.308;16.916;2023-04-16T09:25:15;9.80;;;6.50;;
76752;SDS011;65687;51.308;16.916;2023-04-16T09:30:21;6.50;;;4.50;;
76752;SDS011;65687;51.308;16.916;2023-04-16T09:35:22;8.90;;;5.50;;
76752;SDS011;65687;51.308;16.916;2023-04-16T09:40:24;8.90;;;5.60;;
76752;SDS011;65687;51.308;16.916;2023-04-16T09:45:30;8.80;;;5.60;;
76752;SDS011;65687;51.308;16.916;2023-04-16T09:50:33;7.40;;;5.30;;
76752;SDS011;65687;51.308;16.916;2023-04-16T09:55:35;8.20;;;5.40;;
76752;SDS011;65687;51.308;16.916;2023-04-16T10:00:36;8.10;;;5.50;;
76752;SDS011;65687;51.308;16.916;2023-04-16T10:05:41;9.50;;;6.40;;
76752;SDS011;65687;51.308;16.916;2023-04-16T10:10:42;8.50;;;5.90;;
76752;SDS011;65687;51.308;16.916;2023-04-16T10:15:45;7.40;;;4.70;;
76752;SDS011;65687;51.308;16.916;2023-04-16T10:20:46;6.60;;;4.70;;
76752;SDS011;65687;51.308;16.916;2023-04-16T10:25:49;5.90;;;3.80;;
76752;SDS011;65687;51.308;16.916;2023-04-16T10:30:52;5.10;;;3.90;;
76752;SDS011;65687;51.308;16.916;2023-04-16T10:36:06;3.80;;;2.50;;
76752;SDS011;65687;51.308;16.916;2023-04-16T10:41:12;4.50;;;2.50;;
76752;SDS011;65687;51.308;16.916;2023-04-16T10:56:38;4.70;;;3.30;;
76752;SDS011;65687;51.308;16.916;2023-04-16T11:01:42;5.00;;;3.40;;
76752;SDS011;65687;51.308;16.916;2023-04-16T11:07:00;4.70;;;3.40;;
76752;SDS011;65687;51.308;16.916;2023-04-16T11:12:17;4.50;;;3.30;;
76752;SDS011;65687;51.308;16.916;2023-04-16T11:17:26;5.00;;;3.10;;
76752;SDS011;65687;51.308;16.916;2023-04-16T11:22:37;4.10;;;2.90;;
76752;SDS011;65687;51.308;16.916;2023-04-16T11:27:39;4.80;;;3.00;;
76752;SDS011;65687;51.308;16.916;2023-04-16T11:32:41;3.30;;;2.50;;
76752;SDS011;65687;51.308;16.916;2023-04-16T11:37:44;3.70;;;2.80;;
76752;SDS011;65687;51.308;16.916;2023-04-16T11:42:48;4.40;;;2.80;;
76752;SDS011;65687;51.308;16.916;2023-04-16T11:47:50;3.90;;;2.60;;
76752;SDS011;65687;51.308;16.916;2023-04-16T11:52:55;3.80;;;2.70;;
76752;SDS011;65687;51.308;16.916;2023-04-16T11:58:12;3.40;;;2.10;;
76752;SDS011;65687;51.308;16.916;2023-04-16T12:03:16;2.90;;;2.20;;
76752;SDS011;65687;51.308;16.916;2023-04-16T12:08:27;2.80;;;2.30;;
76752;SDS011;65687;51.308;16.916;2023-04-16T12:13:31;3.00;;;2.30;;
76752;SDS011;65687;51.308;16.916;2023-04-16T12:18:44;5.30;;;2.50;;
76752;SDS011;65687;51.308;16.916;2023-04-16T12:23:59;2.80;;;2.10;;
76752;SDS011;65687;51.308;16.916;2023-04-16T12:29:20;2.60;;;1.90;;
76752;SDS011;65687;51.308;16.916;2023-04-16T12:34:23;3.50;;;2.30;;
76752;SDS011;65687;51.308;16.916;2023-04-16T12:39:24;4.00;;;3.00;;
76752;SDS011;65687;51.308;16.916;2023-04-16T12:44:26;2.90;;;2.40;;
76752;SDS011;65687;51.308;16.916;2023-04-16T12:49:29;3.80;;;2.90;;
76752;SDS011;65687;51.308;16.916;2023-04-16T12:54:31;3.10;;;2.40;;
76752;SDS011;65687;51.308;16.916;2023-04-16T12:59:32;3.60;;;2.30;;
76752;SDS011;65687;51.308;16.916;2023-04-16T13:04:34;4.50;;;3.00;;
76752;SDS011;65687;51.308;16.916;2023-04-16T13:09:36;3.00;;;2.40;;
76752;SDS011;65687;51.308;16.916;2023-04-16T13:14:37;3.40;;;2.40;;
76752;SDS011;65687;51.308;16.916;2023-04-16T13:19:39;3.30;;;2.60;;
76752;SDS011;65687;51.308;16.916;2023-04-16T13:24:40;3.30;;;2.30;;
76752;SDS011;65687;51.308;16.916;2023-04-16T13:29:42;4.00;;;2.30;;
76752;SDS011;65687;51.308;16.916;2023-04-16T13:39:46;3.20;;;2.10;;
76752;SDS011;65687;51.308;16.916;2023-04-16T13:44:47;2.60;;;2.00;;
76752;SDS011;65687;51.308;16.916;2023-04-16T13:49:53;8.00;;;3.90;;
76752;SDS011;65687;51.308;16.916;2023-04-16T13:54:54;2.90;;;2.20;;
76752;SDS011;65687;51.308;16.916;2023-04-16T13:59:56;3.70;;;2.60;;
76752;SDS011;65687;51.308;16.916;2023-04-16T14:04:58;3.60;;;2.50;;
76752;SDS011;65687;51.308;16.916;2023-04-16T14:09:59;4.70;;;2.90;;
76752;SDS011;65687;51.308;16.916;2023-04-16T14:15:01;13.20;;;4.90;;
76752;SDS011;65687;51.308;16.916;2023-04-16T14:20:04;4.40;;;3.30;;
76752;SDS011;65687;51.308;16.916;2023-04-16T14:25:07;4.80;;;3.00;;
76752;SDS011;65687;51.308;16.916;2023-04-16T14:30:08;4.70;;;3.40;;
76752;SDS011;65687;51.308;16.916;2023-04-16T14:35:10;4.10;;;3.50;;
76752;SDS011;65687;51.308;16.916;2023-04-16T14:40:12;3.80;;;3.20;;
76752;SDS011;65687;51.308;16.916;2023-04-16T14:45:13;3.30;;;2.50;;
76752;SDS011;65687;51.308;16.916;2023-04-16T14:50:15;8.70;;;2.90;;
76752;SDS011;65687;51.308;16.916;2023-04-16T14:55:17;38.40;;;6.20;;
76752;SDS011;65687;51.308;16.916;2023-04-16T15:00:18;4.50;;;2.80;;
76752;SDS011;65687;51.308;16.916;2023-04-16T15:05:20;3.60;;;2.30;;
76752;SDS011;65687;51.308;16.916;2023-04-16T15:15:23;4.10;;;2.50;;
76752;SDS011;65687;51.308;16.916;2023-04-16T15:20:25;3.60;;;2.50;;
76752;SDS011;65687;51.308;16.916;2023-04-16T15:25:27;3.20;;;2.20;;
76752;SDS011;65687;51.308;16.916;2023-04-16T15:30:29;3.20;;;2.20;;
76752;SDS011;65687;51.308;16.916;2023-04-16T15:40:32;3.10;;;2.30;;
76752;SDS011;65687;51.308;16.916;2023-04-16T15:45:34;3.00;;;2.10;;
76752;SDS011;65687;51.308;16.916;2023-04-16T15:50:35;4.20;;;2.30;;
76752;SDS011;65687;51.308;16.916;2023-04-16T15:55:37;4.60;;;2.50;;
76752;SDS011;65687;51.308;16.916;2023-04-16T16:00:39;3.40;;;2.30;;
76752;SDS011;65687;51.308;16.916;2023-04-16T16:05:41;2.70;;;2.40;;
76752;SDS011;65687;51.308;16.916;2023-04-16T16:10:42;2.70;;;2.20;;
76752;SDS011;65687;51.308;16.916;2023-04-16T16:15:44;3.50;;;2.20;;
76752;SDS011;65687;51.308;16.916;2023-04-16T16:20:45;3.00;;;2.20;;
76752;SDS011;65687;51.308;16.916;2023-04-16T16:25:47;3.10;;;2.20;;
76752;SDS011;65687;51.308;16.916;2023-04-16T16:30:48;5.50;;;3.70;;
76752;SDS011;65687;51.308;16.916;2023-04-16T16:35:51;8.80;;;6.00;;
76752;SDS011;65687;51.308;16.916;2023-04-16T16:40:52;8.30;;;6.70;;
76752;SDS011;65687;51.308;16.916;2023-04-16T16:45:54;8.30;;;5.10;;
76752;SDS011;65687;51.308;16.916;2023-04-16T16:50:55;7.30;;;4.90;;
76752;SDS011;65687;51.308;16.916;2023-04-16T16:55:57;7.90;;;5.60;;
76752;SDS011;65687;51.308;16.916;2023-04-16T17:00:59;9.00;;;5.70;;
76752;SDS011;65687;51.308;16.916;2023-04-16T17:06:00;6.60;;;4.20;;
76752;SDS011;65687;51.308;16.916;2023-04-16T17:11:02;6.80;;;4.00;;
76752;SDS011;65687;51.308;16.916;2023-04-16T17:21:06;6.00;;;4.20;;
76752;SDS011;65687;51.308;16.916;2023-04-16T17:26:08;6.30;;;4.60;;
76752;SDS011;65687;51.308;16.916;2023-04-16T17:31:09;8.90;;;6.10;;
76752;SDS011;65687;51.308;16.916;2023-04-16T17:36:11;7.50;;;5.50;;
76752;SDS011;65687;51.308;16.916;2023-04-16T17:41:13;8.10;;;5.60;;
76752;SDS011;65687;51.308;16.916;2023-04-16T17:46:14;6.30;;;4.20;;
76752;SDS011;65687;51.308;16.916;2023-04-16T17:51:16;9.60;;;6.10;;
76752;SDS011;65687;51.308;16.916;2023-04-16T17:56:18;8.20;;;5.70;;
76752;SDS011;65687;51.308;16.916;2023-04-16T18:01:19;8.30;;;5.50;;
76752;SDS011;65687;51.308;16.916;2023-04-16T18:06:21;9.00;;;5.90;;
76752;SDS011;65687;51.308;16.916;2023-04-16T18:11:22;9.20;;;6.30;;
76752;SDS011;65687;51.308;16.916;2023-04-16T18:16:24;9.80;;;7.50;;
76752;SDS011;65687;51.308;16.916;2023-04-16T18:26:29;11.00;;;7.20;;
76752;SDS011;65687;51.308;16.916;2023-04-16T18:31:31;9.80;;;6.70;;
76752;SDS011;65687;51.308;16.916;2023-04-16T18:36:33;12.70;;;7.20;;
76752;SDS011;65687;51.308;16.916;2023-04-16T18:41:35;10.30;;;6.80;;
76752;SDS011;65687;51.308;16.916;2023-04-16T18:46:37;14.30;;;8.90;;
76752;SDS011;65687;51.308;16.916;2023-04-16T18:51:39;13.90;;;9.00;;
76752;SDS011;65687;51.308;16.916;2023-04-16T18:56:42;14.70;;;9.60;;
76752;SDS011;65687;51.308;16.916;2023-04-16T19:01:43;15.20;;;9.40;;
76752;SDS011;65687;51.308;16.916;2023-04-16T19:06:46;13.60;;;10.00;;
76752;SDS011;65687;51.308;16.916;2023-04-16T19:11:48;14.80;;;11.20;;
76752;SDS011;65687;51.308;16.916;2023-04-16T19:16:50;14.90;;;9.90;;
76752;SDS011;65687;51.308;16.916;2023-04-16T19:21:52;13.90;;;10.30;;
76752;SDS011;65687;51.308;16.916;2023-04-16T19:26:54;13.90;;;10.10;;
76752;SDS011;65687;51.308;16.916;2023-04-16T19:31:56;15.40;;;10.40;;
76752;SDS011;65687;51.308;16.916;2023-04-16T19:36:58;16.20;;;10.60;;
76752;SDS011;65687;51.308;16.916;2023-04-16T19:41:59;18.70;;;11.70;;
76752;SDS011;65687;51.308;16.916;2023-04-16T19:47:01;16.00;;;11.60;;
76752;SDS011;65687;51.308;16.916;2023-04-16T19:52:03;16.60;;;11.70;;
76752;SDS011;65687;51.308;16.916;2023-04-16T19:57:05;17.90;;;14.10;;
76752;SDS011;65687;51.308;16.916;2023-04-16T20:02:06;18.50;;;12.90;;
76752;SDS011;65687;51.308;16.916;2023-04-16T20:07:08;20.00;;;13.20;;
76752;SDS011;65687;51.308;16.916;2023-04-16T20:12:09;20.60;;;16.00;;
76752;SDS011;65687;51.308;16.916;2023-04-16T20:17:11;16.80;;;10.90;;
76752;SDS011;65687;51.308;16.916;2023-04-16T20:22:17;16.40;;;11.90;;
76752;SDS011;65687;51.308;16.916;2023-04-16T20:27:19;15.50;;;11.20;;
76752;SDS011;65687;51.308;16.916;2023-04-16T20:32:21;19.30;;;11.80;;
76752;SDS011;65687;51.308;16.916;2023-04-16T20:37:23;17.60;;;13.50;;
76752;SDS011;65687;51.308;16.916;2023-04-16T20:42:24;18.70;;;13.50;;
76752;SDS011;65687;51.308;16.916;2023-04-16T20:47:26;20.70;;;13.20;;
76752;SDS011;65687;51.308;16.916;2023-04-16T20:52:28;19.60;;;13.90;;
76752;SDS011;65687;51.308;16.916;2023-04-16T20:57:29;19.20;;;12.60;;
76752;SDS011;65687;51.308;16.916;2023-04-16T21:02:32;16.90;;;11.00;;
76752;SDS011;65687;51.308;16.916;2023-04-16T21:07:33;17.80;;;13.00;;
76752;SDS011;65687;51.308;16.916;2023-04-16T21:12:35;19.00;;;12.60;;
76752;SDS011;65687;51.308;16.916;2023-04-16T21:17:37;19.50;;;12.70;;
76752;SDS011;65687;51.308;16.916;2023-04-16T21:22:38;18.60;;;12.60;;
76752;SDS011;65687;51.308;16.916;2023-04-16T21:27:40;18.10;;;12.80;;
76752;SDS011;65687;51.308;16.916;2023-04-16T21:32:41;19.80;;;12.40;;
76752;SDS011;65687;51.308;16.916;2023-04-16T21:37:43;21.10;;;12.60;;
76752;SDS011;65687;51.308;16.916;2023-04-16T21:42:45;19.40;;;12.70;;
76752;SDS011;65687;51.308;16.916;2023-04-16T21:47:46;17.40;;;11.30;;
76752;SDS011;65687;51.308;16.916;2023-04-16T21:52:48;20.30;;;11.90;;
76752;SDS011;65687;51.308;16.916;2023-04-16T21:57:49;19.70;;;13.10;;
76752;SDS011;65687;51.308;16.916;2023-04-16T22:02:51;21.20;;;13.60;;
76752;SDS011;65687;51.308;16.916;2023-04-16T22:07:56;18.70;;;12.60;;
76752;SDS011;65687;51.308;16.916;2023-04-16T22:12:57;20.70;;;13.50;;
76752;SDS011;65687;51.308;16.916;2023-04-16T22:17:59;21.70;;;14.00;;
76752;SDS011;65687;51.308;16.916;2023-04-16T22:23:01;21.60;;;12.40;;
76752;SDS011;65687;51.308;16.916;2023-04-16T22:28:02;19.50;;;12.50;;
76752;SDS011;65687;51.308;16.916;2023-04-16T22:33:04;18.60;;;12.10;;
76752;SDS011;65687;51.308;16.916;2023-04-16T22:38:05;22.40;;;11.90;;
76752;SDS011;65687;51.308;16.916;2023-04-16T22:43:07;18.10;;;10.80;;
76752;SDS011;65687;51.308;16.916;2023-04-16T22:48:09;20.70;;;13.30;;
76752;SDS011;65687;51.308;16.916;2023-04-16T22:53:10;22.00;;;13.90;;
76752;SDS011;65687;51.308;16.916;2023-04-16T22:58:12;22.40;;;13.60;;
76752;SDS011;65687;51.308;16.916;2023-04-16T23:03:13;27.00;;;15.60;;
76752;SDS011;65687;51.308;16.916;2023-04-16T23:08:15;23.20;;;14.40;;
76752;SDS011;65687;51.308;16.916;2023-04-16T23:13:16;24.50;;;14.20;;
76752;SDS011;65687;51.308;16.916;2023-04-16T23:18:18;23.00;;;13.40;;
76752;SDS011;65687;51.308;16.916;2023-04-16T23:23:19;20.80;;;13.30;;
76752;SDS011;65687;51.308;16.916;2023-04-16T23:28:21;22.80;;;14.20;;
76752;SDS011;65687;51.308;16.916;2023-04-16T23:33:22;21.30;;;13.10;;
76752;SDS011;65687;51.308;16.916;2023-04-16T23:38:24;21.60;;;13.40;;
76752;SDS011;65687;51.308;16.916;2023-04-16T23:43:25;18.90;;;12.50;;
76752;SDS011;65687;51.308;16.916;2023-04-16T23:48:27;23.00;;;14.40;;
76752;SDS011;65687;51.308;16.916;2023-04-16T23:53:29;25.60;;;15.10;;
76752;SDS011;65687;51.308;16.916;2023-04-16T23:58:30;22.60;;;13.90;;
